createdAt,value
2022-12-14T00:01:04.229Z,78.16
2022-12-14T00:06:34.083Z,78.47
2022-12-14T00:12:06.174Z,79.29
2022-12-14T00:17:38.415Z,78.81
2022-12-14T00:23:09.397Z,79.0
2022-12-14T00:28:41.094Z,78.83
2022-12-14T00:34:12.918Z,78.67
2022-12-14T00:39:44.545Z,78.47
2022-12-14T00:45:22.608Z,78.39
2022-12-14T00:50:54.833Z,78.8
2022-12-14T00:56:26.125Z,78.47
2022-12-14T01:01:58.061Z,79.14
2022-12-14T01:07:29.684Z,80.36
2022-12-14T01:13:01.634Z,80.59
2022-12-14T01:18:33.000Z,80.81
2022-12-14T01:24:04.745Z,81.04
2022-12-14T01:29:36.560Z,80.35
2022-12-14T01:35:08.208Z,80.08
2022-12-14T01:40:39.962Z,80.09
2022-12-14T01:46:16.166Z,79.42
2022-12-14T01:51:47.816Z,80.06
2022-12-14T01:57:19.554Z,80.48
2022-12-14T02:02:51.539Z,80.67
2022-12-14T02:08:23.968Z,80.3
2022-12-14T02:13:54.578Z,80.39
2022-12-14T02:19:26.321Z,80.5
2022-12-14T02:24:58.090Z,80.29
2022-12-14T02:30:29.602Z,80.17
2022-12-14T02:36:01.332Z,79.81
2022-12-14T02:41:33.063Z,79.76
2022-12-14T02:47:09.304Z,79.59
2022-12-14T02:52:41.022Z,79.31
2022-12-14T02:58:12.725Z,79.29
2022-12-14T03:03:44.376Z,79.48
2022-12-14T03:09:16.149Z,80.15
2022-12-14T03:14:47.833Z,80.69
2022-12-14T03:20:20.060Z,81.19
2022-12-14T03:25:51.261Z,81.45
2022-12-14T03:31:23.212Z,81.53
2022-12-14T03:36:55.073Z,81.41
2022-12-14T03:42:26.610Z,81.14
2022-12-14T03:48:02.673Z,81.47
2022-12-14T03:53:34.929Z,81.17
2022-12-14T03:59:06.161Z,81.38
2022-12-14T04:04:37.843Z,81.31
2022-12-14T04:10:09.601Z,82.01
2022-12-14T04:15:41.542Z,82.97
2022-12-14T04:21:12.993Z,83.02
2022-12-14T04:26:44.725Z,83.17
2022-12-14T04:32:16.617Z,83.44
2022-12-14T04:37:49.095Z,83.38
2022-12-14T04:43:20.056Z,83.64
2022-12-14T04:48:56.177Z,83.64
2022-12-14T04:54:27.848Z,83.98
2022-12-14T04:59:59.403Z,83.93
2022-12-14T05:05:31.197Z,84.39
2022-12-14T05:11:52.345Z,84.18
2022-12-14T05:16:34.665Z,84.21
2022-12-14T05:22:06.309Z,83.94
2022-12-14T05:27:38.209Z,84.59
2022-12-14T05:33:09.717Z,84.99
2022-12-14T05:38:41.524Z,85.67
2022-12-14T05:44:13.260Z,85.33
2022-12-14T05:49:49.849Z,85.91
2022-12-14T05:55:21.166Z,86.15
2022-12-14T06:00:52.760Z,86.76
2022-12-14T06:06:24.613Z,87.1
2022-12-14T06:11:56.279Z,86.5
2022-12-14T06:17:27.987Z,87.11
2022-12-14T06:22:59.668Z,87.13
2022-12-14T06:28:31.382Z,87.88
2022-12-14T06:34:03.184Z,88.57
2022-12-14T06:39:34.859Z,89.3
2022-12-14T06:45:06.723Z,89.47
2022-12-14T06:50:45.153Z,90.63
2022-12-14T06:56:16.521Z,90.87
2022-12-14T07:01:50.837Z,92.38
2022-12-14T07:07:19.948Z,94.13
2022-12-14T07:12:51.535Z,95.08
2022-12-14T07:18:23.318Z,96.26
2022-12-14T07:23:55.051Z,97.12
2022-12-14T07:29:34.481Z,96.81
2022-12-14T07:34:58.573Z,98.11
2022-12-14T07:40:30.201Z,97.74
2022-12-14T07:46:02.196Z,97.33
2022-12-14T07:51:40.062Z,97.36
2022-12-14T07:57:12.154Z,96.73
2022-12-14T08:02:43.683Z,96.74
2022-12-14T08:08:15.334Z,98.17
2022-12-14T08:13:46.976Z,98.2
2022-12-14T08:19:18.760Z,97.43
2022-12-14T08:24:50.496Z,96.91
2022-12-14T08:30:22.336Z,96.51
2022-12-14T08:35:54.009Z,96.5
2022-12-14T08:41:25.801Z,97.01
2022-12-14T08:46:57.428Z,97.49
2022-12-14T08:52:33.549Z,97.32
2022-12-14T08:58:05.274Z,96.63
2022-12-14T09:03:36.795Z,96.63
2022-12-14T09:09:16.934Z,98.27
2022-12-14T09:14:40.524Z,98.37
2022-12-14T09:20:12.197Z,99.31
2022-12-14T09:25:44.457Z,99.09
2022-12-14T09:31:15.685Z,100.0
2022-12-14T09:36:47.344Z,100.0
2022-12-14T09:42:19.052Z,100.0
2022-12-14T09:47:51.373Z,100.0
2022-12-14T09:53:27.779Z,99.85
2022-12-14T09:58:58.657Z,99.34
2022-12-14T10:04:30.219Z,99.05
2022-12-14T10:10:01.910Z,98.13
2022-12-14T10:15:33.673Z,98.12
2022-12-14T10:21:05.337Z,98.94
2022-12-14T10:26:37.027Z,99.64
2022-12-14T10:32:08.928Z,99.79
2022-12-14T10:37:40.525Z,99.37
2022-12-14T10:43:12.225Z,99.82
2022-12-14T10:48:44.015Z,100.0
2022-12-14T10:54:20.292Z,100.0
2022-12-14T11:00:09.816Z,99.56
2022-12-14T11:05:23.671Z,98.82
2022-12-14T11:10:55.347Z,97.77
2022-12-14T11:16:36.228Z,97.3
2022-12-14T11:21:58.816Z,97.47
2022-12-14T11:27:30.722Z,97.25
2022-12-14T11:33:02.281Z,97.82
2022-12-14T11:38:34.352Z,97.47
2022-12-14T11:44:05.790Z,98.04
2022-12-14T11:49:37.858Z,97.83
2022-12-14T11:55:15.872Z,98.06
2022-12-14T12:00:47.878Z,97.84
2022-12-14T12:06:19.076Z,97.37
2022-12-14T12:11:50.614Z,97.74
2022-12-14T12:17:22.409Z,97.2
2022-12-14T12:22:53.978Z,98.48
2022-12-14T12:28:26.113Z,97.89
2022-12-14T12:33:57.935Z,97.82
2022-12-14T12:39:29.251Z,100.0
2022-12-14T12:45:01.472Z,100.0
2022-12-14T12:50:33.088Z,100.0
2022-12-14T12:56:08.825Z,100.0
2022-12-14T13:01:40.908Z,100.0
2022-12-14T13:07:12.273Z,100.0
2022-12-14T13:12:48.195Z,100.0
2022-12-14T13:18:59.456Z,100.0
2022-12-14T13:23:47.589Z,100.0
2022-12-14T13:29:19.254Z,100.0
2022-12-14T13:34:50.906Z,100.0
2022-12-14T13:40:22.770Z,100.0
2022-12-14T13:45:54.442Z,100.0
2022-12-14T13:51:26.134Z,100.0
2022-12-14T13:57:02.487Z,100.0
2022-12-14T14:02:34.239Z,100.0
2022-12-14T14:08:06.033Z,100.0
2022-12-14T14:13:37.424Z,100.0
2022-12-14T14:19:09.247Z,100.0
2022-12-14T14:24:40.827Z,100.0
2022-12-14T14:30:12.585Z,100.0
2022-12-14T14:35:50.143Z,100.0
2022-12-14T14:41:18.739Z,100.0
2022-12-14T14:46:47.879Z,100.0
2022-12-14T14:52:19.378Z,100.0
2022-12-14T14:57:55.810Z,100.0
2022-12-14T15:03:27.337Z,100.0
2022-12-14T15:08:58.953Z,100.0
2022-12-14T15:14:30.776Z,100.0
2022-12-14T15:20:02.796Z,100.0
2022-12-14T15:25:34.593Z,100.0
2022-12-14T15:31:06.083Z,100.0
2022-12-14T15:36:37.545Z,100.0
2022-12-14T15:42:09.386Z,100.0
2022-12-14T15:47:41.013Z,100.0
2022-12-14T15:53:12.832Z,100.0
2022-12-14T15:58:49.443Z,100.0
2022-12-14T16:04:20.695Z,100.0
2022-12-14T16:09:52.632Z,100.0
2022-12-14T16:15:24.245Z,100.0
2022-12-14T16:20:55.802Z,100.0
2022-12-14T16:26:27.540Z,100.0
2022-12-14T16:31:59.412Z,100.0
2022-12-14T16:37:34.375Z,100.0
2022-12-14T16:43:03.210Z,99.85
2022-12-14T16:48:34.564Z,99.63
2022-12-14T16:54:06.230Z,99.8
2022-12-14T16:59:42.560Z,100.0
2022-12-14T17:05:14.185Z,100.0
2022-12-14T17:10:46.448Z,99.85
2022-12-14T17:16:17.503Z,100.0
2022-12-14T17:21:49.361Z,100.0
2022-12-14T17:27:20.937Z,100.0
2022-12-14T17:32:53.113Z,99.61
2022-12-14T17:38:24.328Z,99.39
2022-12-14T17:43:57.664Z,99.7
2022-12-14T17:49:27.755Z,99.37
2022-12-14T17:54:59.551Z,99.13
2022-12-14T18:00:35.632Z,98.69
2022-12-14T18:06:07.296Z,98.64
2022-12-14T18:12:21.977Z,98.9
2022-12-14T18:17:12.151Z,98.35
2022-12-14T18:22:42.925Z,99.45
2022-12-14T18:28:14.293Z,100.0
2022-12-14T18:33:46.010Z,99.69
2022-12-14T18:39:17.778Z,99.83
2022-12-14T18:44:49.433Z,99.57
2022-12-14T18:50:21.985Z,98.99
2022-12-14T18:55:53.029Z,98.41
2022-12-14T19:01:29.286Z,98.75
2022-12-14T19:07:00.717Z,97.41
2022-12-14T19:12:32.481Z,97.93
2022-12-14T19:18:04.381Z,98.38
2022-12-14T19:23:36.623Z,99.17
2022-12-14T19:29:07.680Z,99.35
2022-12-14T19:34:39.335Z,100.0
2022-12-14T19:40:14.183Z,100.0
2022-12-14T19:45:42.727Z,100.0
2022-12-14T19:51:14.637Z,99.94
2022-12-14T19:56:49.482Z,99.56
2022-12-14T20:02:22.639Z,100.0
2022-12-14T20:07:54.183Z,100.0
2022-12-14T20:13:25.798Z,100.0
2022-12-14T20:18:57.615Z,100.0
2022-12-14T20:24:29.277Z,99.75
2022-12-14T20:30:01.179Z,99.15
2022-12-14T20:35:32.718Z,98.62
2022-12-14T20:41:04.625Z,98.62
2022-12-14T20:46:36.762Z,97.76
2022-12-14T20:52:07.988Z,97.52
2022-12-14T20:57:39.877Z,97.57
2022-12-14T21:03:16.122Z,97.12
2022-12-14T21:08:49.691Z,98.29
2022-12-14T21:14:20.899Z,97.37
2022-12-14T21:19:50.976Z,96.25
2022-12-14T21:25:22.661Z,96.45
2022-12-14T21:30:54.594Z,96.19
2022-12-14T21:36:26.250Z,95.93
2022-12-14T21:41:57.909Z,95.78
2022-12-14T21:47:29.824Z,96.8
2022-12-14T21:53:02.842Z,96.31
2022-12-14T21:58:33.177Z,96.13
2022-12-14T22:04:09.137Z,95.88
2022-12-14T22:09:40.997Z,95.55
2022-12-14T22:15:12.716Z,95.88
2022-12-14T22:20:44.435Z,95.98
2022-12-14T22:26:16.056Z,95.29
2022-12-14T22:31:47.922Z,95.53
2022-12-14T22:37:19.472Z,95.76
2022-12-14T22:42:51.058Z,95.45
2022-12-14T22:48:22.997Z,95.83
2022-12-14T22:53:54.645Z,95.62
2022-12-14T22:59:26.292Z,95.1
2022-12-14T23:05:04.346Z,94.96
2022-12-14T23:10:36.151Z,95.06
2022-12-14T23:16:07.747Z,94.71
2022-12-14T23:21:39.641Z,94.51
2022-12-14T23:27:11.417Z,94.78
2022-12-14T23:32:43.090Z,94.66
2022-12-14T23:38:15.159Z,94.63
2022-12-14T23:43:46.616Z,94.71
2022-12-14T23:49:18.387Z,95.46
2022-12-14T23:54:50.113Z,95.36
